Westover AFB, Massachusetts
Current Conditions -  °F | °C
As of 3:58 PM on Thursday 20 Nov 2014 (Local Time) from KCEF Reporting Station
Clear Clear  
Wind Chill: 33°   Ceiling: Unl
Heat Index: 41°   Visibility: 10mi
Dew Point: 13°   Wind: 15mph
Humidity: 32%   Direction: 250°WSW
Pressure: 29.78"   Gusts: 24mph
Location:  42.1968°N, 72.5424°W
Report Text: KCEF 202058Z AUTO 25013G21KT 10SM CLR 05/M11 A2978 RMK AO2 SLP093 T00501106 55001
Loading
Personal Weather Stations






























Interactive Weather Map New forecast layout! Learn more

10-Day Weather Forecast

Advertisements
Track Severe Weather on mobile